Time;durP1;ratioP1;P1;durP2;ratioP2;P2;SDS_P1;SDS_P2;PMS_P1;PMS_P2;Temp;Humidity;BMP_temperature;BMP_pressure;BME280_temperature;BME280_humidity;BME280_pressure;Samples;Min_cycle;Max_cycle;Signal;HPM_P1;HPM_P2
2022/12/18 00:01:18;;;;;;;30.42;11.05;;;;;;;-3.87;100.00;100009.44;4468890;32;20088;-73
2022/12/18 00:03:46;;;;;;;35.55;11.48;;;;;;;-3.81;100.00;100011.09;4469024;32;20100;-73
2022/12/18 00:06:14;;;;;;;47.00;15.10;;;;;;;-3.83;100.00;100023.03;4469131;32;20089;-72
2022/12/18 00:08:42;;;;;;;41.20;13.48;;;;;;;-3.81;100.00;100022.16;4473060;32;20155;-72
2022/12/18 00:11:15;;;;;;;41.80;14.00;;;;;;;-3.86;100.00;100031.62;4484803;31;20601;-72
2022/12/18 00:13:42;;;;;;;35.28;12.07;;;;;;;-3.81;100.00;100039.25;4484377;32;20153;-72
2022/12/18 00:16:14;;;;;;;38.10;14.15;;;;;;;-3.89;100.00;100041.00;4484474;32;20444;-73
2022/12/18 00:18:42;;;;;;;38.40;13.85;;;;;;;-3.92;100.00;100047.03;4484456;31;20103;-72
2022/12/18 00:21:11;;;;;;;34.20;14.40;;;;;;;-3.89;100.00;100043.56;4477650;31;20164;-73
2022/12/18 00:23:39;;;;;;;31.08;13.65;;;;;;;-3.95;100.00;100049.63;4468586;32;20506;-73
2022/12/18 00:26:10;;;;;;;40.78;13.98;;;;;;;-3.97;100.00;100067.53;4468902;32;20203;-73
2022/12/18 00:28:41;;;;;;;38.20;14.60;;;;;;;-3.95;100.00;100062.44;4468737;32;20107;-72
2022/12/18 00:31:10;;;;;;;36.65;11.73;;;;;;;-3.97;100.00;100069.25;4468512;32;20116;-72
2022/12/18 00:33:37;;;;;;;44.35;14.90;;;;;;;-4.02;100.00;100078.69;4468569;32;20107;-72
2022/12/18 00:36:14;;;;;;;38.63;13.45;;;;;;;-4.07;100.00;100082.97;4468404;32;20085;-73
2022/12/18 00:38:41;;;;;;;45.83;14.55;;;;;;;-4.11;100.00;100079.59;4468624;32;20092;-72
2022/12/18 00:41:10;;;;;;;39.10;13.23;;;;;;;-4.13;100.00;100079.62;4468377;32;20118;-72
2022/12/18 00:43:38;;;;;;;43.67;13.05;;;;;;;-4.17;100.00;100082.22;4468117;32;20474;-73
2022/12/18 00:46:06;;;;;;;38.92;12.20;;;;;;;-4.12;100.00;100076.22;4468432;32;20442;-73
2022/12/18 00:48:34;;;;;;;29.52;12.60;;;;;;;-4.18;100.00;100083.06;4468230;32;20118;-72
2022/12/18 00:51:01;;;;;;;39.35;15.07;;;;;;;-4.18;100.00;100080.50;4468321;32;20091;-73
2022/12/18 00:53:28;;;;;;;42.22;15.65;;;;;;;-4.18;100.00;100085.63;4468260;32;20085;-73
2022/12/18 00:55:55;;;;;;;39.67;13.35;;;;;;;-4.20;100.00;100095.03;4469748;32;20132;-72
2022/12/18 00:58:22;;;;;;;37.28;11.95;;;;;;;-4.27;100.00;100101.91;4470474;32;20115;-73
2022/12/18 01:00:49;;;;;;;41.95;15.32;;;;;;;-4.18;100.00;100099.28;4470132;32;20553;-73
2022/12/18 01:03:17;;;;;;;32.10;11.90;;;;;;;-4.12;100.00;100095.81;4470570;32;20193;-73
2022/12/18 01:05:44;;;;;;;30.77;11.65;;;;;;;-4.13;100.00;100094.97;4470244;32;20088;-73
2022/12/18 01:08:11;;;;;;;34.33;12.65;;;;;;;-4.07;100.00;100098.34;4471246;32;20093;-73
2022/12/18 01:10:41;;;;;;;40.72;14.52;;;;;;;-4.05;100.00;100102.59;4486132;31;20501;-73
2022/12/18 01:13:08;;;;;;;39.50;13.35;;;;;;;-4.05;100.00;100099.19;4485461;31;20092;-73
2022/12/18 01:15:36;;;;;;;37.22;13.45;;;;;;;-4.04;100.00;100104.31;4486201;31;20116;-73
2022/12/18 01:18:04;;;;;;;36.08;10.98;;;;;;;-4.11;100.00;100112.88;4486043;31;20438;-73
2022/12/18 01:20:32;;;;;;;29.40;11.05;;;;;;;-4.04;100.00;100103.44;4483162;31;20112;-73
2022/12/18 01:22:59;;;;;;;35.20;11.75;;;;;;;-4.04;100.00;100104.31;4470192;32;20104;-73
2022/12/18 01:25:26;;;;;;;41.85;14.98;;;;;;;-4.04;100.00;100109.41;4470003;32;20127;-73
2022/12/18 01:27:53;;;;;;;28.25;10.63;;;;;;;-3.99;100.00;100114.50;4470246;32;20092;-73
2022/12/18 01:30:20;;;;;;;26.00;11.50;;;;;;;-4.02;100.00;100117.91;4470117;32;20119;-73
2022/12/18 01:32:48;;;;;;;31.27;13.02;;;;;;;-3.90;100.00;100111.03;4470253;32;20147;-73
2022/12/18 01:35:16;;;;;;;37.80;12.98;;;;;;;-3.88;100.00;100125.47;4469986;32;20097;-73
2022/12/18 01:37:43;;;;;;;35.05;12.77;;;;;;;-3.93;100.00;100127.25;4470527;32;20105;-73
2022/12/18 01:40:11;;;;;;;47.00;12.15;;;;;;;-4.02;100.00;100128.16;4470016;32;20123;-73
2022/12/18 01:42:38;;;;;;;42.03;13.23;;;;;;;-3.89;100.00;100138.28;4469959;32;20454;-73
2022/12/18 01:45:11;;;;;;;41.10;13.38;;;;;;;-3.94;100.00;100130.66;4469806;32;20604;-73
2022/12/18 01:47:49;;;;;;;35.57;12.70;;;;;;;-3.86;100.00;100140.81;4470111;32;20140;-73
2022/12/18 01:50:21;;;;;;;38.83;13.05;;;;;;;-3.88;100.00;100145.97;4468814;32;20089;-73
2022/12/18 01:52:52;;;;;;;26.65;11.82;;;;;;;-3.94;100.00;100140.91;4470113;32;20084;-73
2022/12/18 01:55:23;;;;;;;41.92;12.45;;;;;;;-3.96;100.00;100152.87;4468666;32;20122;-73
2022/12/18 01:57:54;;;;;;;27.90;11.10;;;;;;;-3.91;100.00;100156.22;4470371;32;20152;-73
2022/12/18 02:00:22;;;;;;;30.77;11.63;;;;;;;-3.92;100.00;100141.75;4468629;32;20062;-73
2022/12/18 02:02:50;;;;;;;38.30;13.68;;;;;;;-3.90;100.00;100147.69;4469881;32;20088;-73
2022/12/18 02:05:25;;;;;;;41.35;14.80;;;;;;;-3.92;100.00;100150.28;4469805;32;20160;-73
2022/12/18 02:08:22;;;;;;;34.60;11.70;;;;;;;-3.99;100.00;100158.00;4468009;32;20141;-73
2022/12/18 02:11:19;;;;;;;30.70;10.88;;;;;;;-3.98;100.00;100149.44;4468455;32;20100;-73
2022/12/18 02:14:11;;;;;;;36.47;12.48;;;;;;;-4.02;100.00;100155.47;4468324;32;20511;-73
2022/12/18 02:17:01;;;;;;;46.47;14.07;;;;;;;-4.02;100.00;100158.03;4470004;32;20111;-73
2022/12/18 02:19:51;;;;;;;37.47;12.25;;;;;;;-4.05;100.00;100160.62;4468918;32;20131;-73
2022/12/18 02:22:44;;;;;;;28.80;11.82;;;;;;;-4.11;100.00;100154.66;4484275;32;20092;-73
2022/12/18 02:25:29;;;;;;;40.60;13.93;;;;;;;-4.05;100.00;100163.19;4485465;31;20080;-73
2022/12/18 02:27:59;;;;;;;38.88;13.65;;;;;;;-4.10;100.00;100171.72;4485394;31;20084;-73
2022/12/18 02:30:31;;;;;;;36.10;12.93;;;;;;;-4.15;100.00;100178.59;4484368;32;20457;-73
2022/12/18 02:33:01;;;;;;;30.98;12.18;;;;;;;-4.15;100.00;100178.59;4485462;31;20576;-73
2022/12/18 02:35:30;;;;;;;38.90;13.00;;;;;;;-4.22;100.00;100173.50;4485459;31;20119;-73
2022/12/18 02:37:58;;;;;;;29.70;12.20;;;;;;;-4.21;100.00;100177.75;4485648;31;20632;-73
2022/12/18 02:40:27;;;;;;;32.45;12.00;;;;;;;-4.19;100.00;100176.91;4484318;32;20120;-73
2022/12/18 02:42:55;;;;;;;30.02;13.02;;;;;;;-4.16;100.00;100182.00;4484217;32;20122;-73
2022/12/18 02:45:23;;;;;;;26.62;11.32;;;;;;;-4.22;100.00;100187.16;4485540;32;20477;-73
2022/12/18 02:47:51;;;;;;;34.55;11.77;;;;;;;-4.24;100.00;100188.88;4485417;31;20088;-73
2022/12/18 02:50:22;;;;;;;32.67;13.75;;;;;;;-4.24;100.00;100190.56;4485323;32;20483;-73
2022/12/18 02:53:04;;;;;;;33.35;11.35;;;;;;;-4.25;100.00;100192.31;4484111;32;20115;-73
2022/12/18 02:55:40;;;;;;;33.92;11.27;;;;;;;-4.22;100.00;100189.72;4485439;31;20563;-73
2022/12/18 02:58:28;;;;;;;31.48;13.23;;;;;;;-4.23;100.00;100190.56;4485431;31;20460;-73
2022/12/18 03:01:28;;;;;;;34.95;12.30;;;;;;;-4.28;100.00;100198.28;4485437;31;20091;-73
2022/12/18 03:04:01;;;;;;;26.73;10.70;;;;;;;-4.26;100.00;100200.81;4469196;32;20160;-73
2022/12/18 03:06:32;;;;;;;28.73;12.23;;;;;;;-4.21;100.00;100206.78;4483766;32;20449;-73
2022/12/18 03:09:02;;;;;;;31.98;13.80;;;;;;;-4.25;100.00;100207.66;4479012;31;20101;-73
2022/12/18 03:14:20;;;;;;;31.55;12.15;;;;;;;-4.20;100.00;100208.47;4468524;32;20186;-73
2022/12/18 03:16:51;;;;;;;32.97;10.85;;;;;;;-4.24;100.00;100214.44;4469542;32;20589;-73
2022/12/18 03:19:22;;;;;;;35.95;13.25;;;;;;;-4.22;100.00;100215.31;4468058;32;20164;-73
2022/12/18 03:21:54;;;;;;;34.00;11.10;;;;;;;-4.18;100.00;100214.44;4479445;32;20547;-73
2022/12/18 03:24:23;;;;;;;35.05;12.82;;;;;;;-4.23;100.00;100221.28;4484222;32;20148;-73
2022/12/18 03:26:54;;;;;;;28.83;11.35;;;;;;;-4.15;100.00;100219.53;4485316;31;20115;-73
2022/12/18 03:29:28;;;;;;;32.33;12.23;;;;;;;-4.22;100.00;100220.44;4484033;32;20532;-73
2022/12/18 03:32:03;;;;;;;34.15;11.70;;;;;;;-4.25;100.00;100227.25;4485056;31;20100;-73
2022/12/18 03:34:33;;;;;;;32.37;12.20;;;;;;;-4.30;100.00;100228.16;4484120;32;20518;-73
2022/12/18 03:37:03;;;;;;;32.80;11.90;;;;;;;-4.30;100.00;100232.38;4483614;32;20208;-73
2022/12/18 03:39:31;;;;;;;34.85;11.85;;;;;;;-4.33;100.00;100245.19;4484923;31;20119;-73
2022/12/18 03:42:14;;;;;;;36.58;13.52;;;;;;;-4.34;100.00;100246.91;4485290;31;20100;-73
2022/12/18 03:45:14;;;;;;;28.15;9.63;;;;;;;-4.36;100.00;100255.44;4483612;32;20088;-73
2022/12/18 03:48:00;;;;;;;41.28;11.90;;;;;;;-4.30;100.00;100255.41;4420195;32;20182;-73
2022/12/18 03:50:47;;;;;;;30.75;10.80;;;;;;;-4.35;100.00;100264.84;4420578;32;20167;-73
2022/12/18 03:53:44;;;;;;;26.60;10.05;;;;;;;-4.35;100.00;100263.09;4420585;32;20159;-73
2022/12/18 03:56:13;;;;;;;25.42;11.70;;;;;;;-4.33;100.00;100261.41;4420385;32;20139;-73
2022/12/18 03:58:42;;;;;;;36.45;12.18;;;;;;;-4.41;100.00;100260.59;4407630;32;20097;-73
2022/12/18 04:01:12;;;;;;;30.73;11.55;;;;;;;-4.36;100.00;100260.56;4407889;32;20175;-73
2022/12/18 04:03:41;;;;;;;31.70;10.85;;;;;;;-4.36;100.00;100258.88;4407581;32;20688;-73
2022/12/18 04:06:09;;;;;;;36.10;12.27;;;;;;;-4.35;100.00;100267.37;4407789;32;20476;-73
2022/12/18 04:08:38;;;;;;;39.45;13.40;;;;;;;-4.30;100.00;100266.53;4407648;32;20105;-73
2022/12/18 04:11:06;;;;;;;29.42;12.15;;;;;;;-4.35;100.00;100268.22;4407737;32;20176;-73
2022/12/18 04:13:35;;;;;;;32.42;11.70;;;;;;;-4.46;100.00;100275.94;4420057;32;20578;-73
2022/12/18 04:16:05;;;;;;;29.27;10.43;;;;;;;-4.43;100.00;100267.41;4420390;32;20115;-73
2022/12/18 04:18:32;;;;;;;36.05;12.07;;;;;;;-4.43;100.00;100267.41;4420193;32;20127;-73
2022/12/18 04:21:00;;;;;;;32.35;12.00;;;;;;;-4.47;100.00;100273.41;4414755;32;20152;-73
2022/12/18 04:23:28;;;;;;;29.42;10.77;;;;;;;-4.46;100.00;100277.66;4417488;32;20104;-73
2022/12/18 04:25:56;;;;;;;31.98;11.93;;;;;;;-4.39;100.00;100276.78;4468804;32;20096;-73
2022/12/18 04:28:26;;;;;;;29.58;11.15;;;;;;;-4.37;100.00;100276.78;4468824;32;20168;-73
2022/12/18 04:30:53;;;;;;;36.40;12.70;;;;;;;-4.41;100.00;100281.03;4472879;32;20419;-73
2022/12/18 04:33:21;;;;;;;29.33;10.23;;;;;;;-4.44;100.00;100277.66;4474046;32;20151;-73
2022/12/18 04:35:48;;;;;;;30.75;10.73;;;;;;;-4.42;100.00;100292.16;4473960;32;20116;-73
2022/12/18 04:38:16;;;;;;;34.30;12.37;;;;;;;-4.47;100.00;100279.38;4474126;32;20543;-73
2022/12/18 04:40:45;;;;;;;35.78;10.48;;;;;;;-4.53;100.00;100284.50;4474046;32;20101;-73
2022/12/18 04:43:13;;;;;;;42.78;11.88;;;;;;;-4.50;100.00;100287.03;4473702;32;20581;-73
2022/12/18 04:45:40;;;;;;;37.30;11.20;;;;;;;-4.49;100.00;100291.31;4473763;32;20088;-73
2022/12/18 04:48:08;;;;;;;35.58;11.35;;;;;;;-4.44;100.00;100303.25;4473367;32;20506;-74
2022/12/18 04:50:36;;;;;;;27.67;10.18;;;;;;;-4.49;100.00;100303.25;4473569;32;20096;-73
2022/12/18 04:53:03;;;;;;;29.50;11.95;;;;;;;-4.46;100.00;100311.75;4473602;32;20793;-73
2022/12/18 04:55:30;;;;;;;28.17;11.05;;;;;;;-4.52;100.00;100311.78;4473486;32;20088;-73
2022/12/18 04:57:57;;;;;;;40.47;12.50;;;;;;;-4.54;100.00;100312.63;4473421;32;20097;-73
2022/12/18 05:00:26;;;;;;;33.40;11.25;;;;;;;-4.49;100.00;100314.31;4473365;32;20096;-73
2022/12/18 05:02:53;;;;;;;42.15;12.13;;;;;;;-4.56;100.00;100322.88;4473442;32;20092;-73
2022/12/18 05:05:21;;;;;;;29.40;10.32;;;;;;;-4.52;100.00;100334.78;4473348;32;20167;-73
2022/12/18 05:07:48;;;;;;;35.63;11.77;;;;;;;-4.49;100.00;100336.50;4473336;32;20442;-73
2022/12/18 05:10:15;;;;;;;33.13;11.82;;;;;;;-4.49;100.00;100334.78;4487444;32;20097;-74
2022/12/18 05:13:01;;;;;;;35.40;11.38;;;;;;;-4.55;100.00;100331.41;4488960;31;20119;-73
2022/12/18 05:15:29;;;;;;;32.55;10.75;;;;;;;-4.56;100.00;100333.09;4489231;31;20151;-73
2022/12/18 05:17:57;;;;;;;30.80;11.55;;;;;;;-4.54;100.00;100335.63;4488827;31;20084;-73
2022/12/18 05:20:25;;;;;;;30.02;9.65;;;;;;;-4.59;100.00;100330.53;4486820;31;20446;-73
2022/12/18 05:22:54;;;;;;;30.88;12.23;;;;;;;-4.58;100.00;100333.97;4473159;32;20100;-73
2022/12/18 05:25:22;;;;;;;29.12;10.95;;;;;;;-4.75;100.00;100339.09;4473060;32;20135;-73
2022/12/18 05:27:49;;;;;;;37.15;12.48;;;;;;;-4.71;100.00;100339.13;4473099;32;20101;-74
2022/12/18 05:30:16;;;;;;;40.72;12.77;;;;;;;-4.75;100.00;100339.97;4472885;32;20104;-73
2022/12/18 05:32:43;;;;;;;38.58;12.85;;;;;;;-4.79;100.00;100347.62;4472862;32;20084;-73
2022/12/18 05:35:11;;;;;;;37.80;11.65;;;;;;;-4.77;100.00;100346.75;4473272;32;20108;-74
2022/12/18 05:37:38;;;;;;;33.55;11.82;;;;;;;-4.80;100.00;100341.66;4472833;32;20597;-73
2022/12/18 05:40:10;;;;;;;30.52;10.65;;;;;;;-4.78;100.00;100349.31;4472883;32;20112;-73
2022/12/18 05:42:37;;;;;;;31.02;11.98;;;;;;;-4.79;100.00;100356.16;4470167;32;20154;-73
2022/12/18 05:45:05;;;;;;;34.58;10.98;;;;;;;-4.75;100.00;100351.88;4469892;32;20122;-73
2022/12/18 05:47:32;;;;;;;24.27;11.68;;;;;;;-4.75;100.00;100360.41;4470024;32;20156;-73
2022/12/18 05:49:59;;;;;;;29.83;11.35;;;;;;;-4.79;100.00;100363.81;4470227;32;20105;-73
2022/12/18 05:52:27;;;;;;;31.58;11.32;;;;;;;-4.82;100.00;100368.94;4470191;32;20466;-73
2022/12/18 05:54:54;;;;;;;32.88;10.27;;;;;;;-4.87;100.00;100366.37;4470117;32;20076;-73
2022/12/18 05:57:21;;;;;;;26.10;10.52;;;;;;;-4.93;100.00;100368.94;4470072;32;20550;-73
2022/12/18 05:59:48;;;;;;;33.92;11.32;;;;;;;-4.88;100.00;100369.78;4469836;32;20105;-74
2022/12/18 06:02:15;;;;;;;34.60;10.65;;;;;;;-4.86;100.00;100374.88;4470017;32;20517;-73
2022/12/18 06:04:43;;;;;;;33.42;11.65;;;;;;;-4.88;100.00;100374.06;4470112;32;20205;-73
2022/12/18 06:07:10;;;;;;;32.70;12.25;;;;;;;-4.93;100.00;100380.88;4469922;32;20585;-73
2022/12/18 06:09:37;;;;;;;37.90;12.48;;;;;;;-4.93;100.00;100379.16;4479601;32;20390;-73
2022/12/18 06:12:05;;;;;;;36.13;11.05;;;;;;;-4.88;100.00;100376.59;4485490;31;20119;-73
2022/12/18 06:14:32;;;;;;;24.58;10.30;;;;;;;-4.86;100.00;100380.88;4485204;31;20118;-74
2022/12/18 06:16:59;;;;;;;41.25;13.52;;;;;;;-4.90;100.00;100389.37;4485739;31;20144;-73
2022/12/18 06:19:26;;;;;;;34.28;13.60;;;;;;;-4.89;100.00;100393.66;4485427;31;20147;-73
2022/12/18 06:21:53;;;;;;;37.60;12.52;;;;;;;-4.91;100.00;100400.44;4473994;31;20104;-73
2022/12/18 06:24:20;;;;;;;35.85;12.88;;;;;;;-4.94;100.00;100387.66;4469780;32;20575;-73
2022/12/18 06:26:47;;;;;;;32.42;12.68;;;;;;;-4.99;100.00;100391.94;4469818;32;20556;-73
2022/12/18 06:29:14;;;;;;;37.35;11.95;;;;;;;-5.06;100.00;100396.19;4469732;32;20172;-73
2022/12/18 06:31:41;;;;;;;30.15;12.07;;;;;;;-5.10;100.00;100403.84;4469720;32;20170;-74
2022/12/18 06:34:09;;;;;;;68.45;20.73;;;;;;;-5.14;100.00;100404.72;4469714;32;20101;-73
2022/12/18 06:36:36;;;;;;;57.25;17.83;;;;;;;-5.15;100.00;100403.84;4469639;32;20107;-73
2022/12/18 06:39:03;;;;;;;35.65;16.48;;;;;;;-5.13;100.00;100412.38;4469667;32;20760;-73
2022/12/18 06:41:31;;;;;;;47.83;17.80;;;;;;;-5.09;100.00;100420.88;4469500;32;20097;-73
2022/12/18 06:43:58;;;;;;;51.40;17.73;;;;;;;-5.15;100.00;100426.84;4469673;32;20080;-73
2022/12/18 06:46:26;;;;;;;48.45;16.87;;;;;;;-5.14;100.00;100427.72;4469502;32;20105;-73
2022/12/18 06:48:53;;;;;;;37.33;13.68;;;;;;;-5.11;100.00;100433.66;4469538;32;20180;-73
2022/12/18 06:51:22;;;;;;;57.58;19.35;;;;;;;-5.07;100.00;100420.06;4469554;32;20092;-73
2022/12/18 06:53:49;;;;;;;40.33;13.93;;;;;;;-5.01;100.00;100426.84;4468861;32;20100;-73
2022/12/18 06:56:17;;;;;;;39.40;16.08;;;;;;;-5.00;100.00;100426.00;4469580;32;20160;-73
2022/12/18 06:58:44;;;;;;;34.63;13.10;;;;;;;-4.98;100.00;100434.56;4469715;32;20101;-73
2022/12/18 07:01:12;;;;;;;39.63;15.15;;;;;;;-4.86;100.00;100438.78;4469491;32;20152;-73
2022/12/18 07:03:40;;;;;;;43.30;15.20;;;;;;;-4.83;100.00;100447.34;4469570;32;20152;-73
2022/12/18 07:06:26;;;;;;;33.15;12.80;;;;;;;-4.81;100.00;100448.19;4469419;32;20445;-74
2022/12/18 07:08:54;;;;;;;45.03;13.15;;;;;;;-4.76;100.00;100447.34;4474970;32;20152;-73
2022/12/18 07:11:21;;;;;;;34.67;13.65;;;;;;;-4.64;100.00;100455.84;4484705;31;20092;-73
2022/12/18 07:13:48;;;;;;;30.20;13.25;;;;;;;-4.57;100.00;100451.59;4485112;31;20083;-73
2022/12/18 07:16:20;;;;;;;26.12;10.98;;;;;;;-4.55;100.00;100464.37;4485162;31;20203;-74
2022/12/18 07:18:52;;;;;;;32.60;12.63;;;;;;;-4.39;100.00;100475.44;4485209;31;20145;-74
2022/12/18 07:21:19;;;;;;;40.97;13.62;;;;;;;-4.29;100.00;100477.16;4477189;31;20188;-73
2022/12/18 07:23:47;;;;;;;41.47;13.48;;;;;;;-4.19;100.00;100480.56;4469299;32;20126;-74
2022/12/18 07:26:17;;;;;;;30.33;11.75;;;;;;;-4.13;100.00;100481.41;4469306;32;20092;-73
2022/12/18 07:28:44;;;;;;;39.30;13.75;;;;;;;-4.17;100.00;100482.25;4469302;32;20148;-74
2022/12/18 07:31:14;;;;;;;40.75;15.55;;;;;;;-4.13;100.00;100494.19;4469575;32;20171;-74
2022/12/18 07:33:41;;;;;;;29.42;11.40;;;;;;;-4.00;100.00;100499.28;4469414;32;20100;-73
2022/12/18 07:36:10;;;;;;;34.17;11.15;;;;;;;-3.97;100.00;100501.84;4469176;32;20579;-73
2022/12/18 07:38:37;;;;;;;34.38;15.23;;;;;;;-3.89;100.00;100507.81;4469405;32;20093;-74
2022/12/18 07:41:07;;;;;;;35.35;13.35;;;;;;;-3.76;100.00;100506.91;4469013;32;20096;-73
2022/12/18 07:43:34;;;;;;;36.85;11.63;;;;;;;-3.76;100.00;100504.34;4469103;32;20157;-73
2022/12/18 07:46:02;;;;;;;44.08;13.85;;;;;;;-3.64;100.00;100508.59;4469190;32;20096;-73
2022/12/18 07:48:30;;;;;;;35.00;12.43;;;;;;;-3.53;100.00;100515.41;4469152;32;20152;-73
2022/12/18 07:51:02;;;;;;;35.75;13.10;;;;;;;-3.36;100.00;100521.34;4469049;32;20399;-73
2022/12/18 07:53:30;;;;;;;33.97;12.98;;;;;;;-3.28;100.00;100523.84;4469100;32;20084;-73
2022/12/18 07:55:59;;;;;;;33.97;11.65;;;;;;;-3.35;100.00;100527.28;4469005;32;20114;-74
2022/12/18 07:58:47;;;;;;;30.33;10.90;;;;;;;-3.29;100.00;100535.81;4469002;32;20096;-73
2022/12/18 08:01:15;;;;;;;40.63;14.25;;;;;;;-3.09;100.00;100537.44;4468980;32;20602;-74
2022/12/18 08:03:43;;;;;;;40.75;13.70;;;;;;;-3.05;100.00;100550.22;4468742;32;20100;-73
2022/12/18 08:06:10;;;;;;;44.00;15.13;;;;;;;-3.05;100.00;100549.37;4471980;32;20113;-73
2022/12/18 08:08:37;;;;;;;36.08;13.45;;;;;;;-2.98;100.00;100555.31;4480923;31;20165;-73
2022/12/18 08:11:04;;;;;;;39.67;15.38;;;;;;;-2.98;100.00;100557.88;4468539;32;20169;-73
2022/12/18 08:13:32;;;;;;;43.58;14.18;;;;;;;-2.90;100.00;100558.72;4468697;32;20106;-74
2022/12/18 08:16:01;;;;;;;41.45;14.30;;;;;;;-2.91;100.00;100557.84;4468673;32;20092;-73
2022/12/18 08:18:29;;;;;;;40.08;14.00;;;;;;;-2.98;100.00;100563.88;4468972;32;20113;-73
2022/12/18 08:21:09;;;;;;;35.50;12.52;;;;;;;-3.03;100.00;100563.91;4474333;32;20096;-74
2022/12/18 08:23:37;;;;;;;40.22;14.25;;;;;;;-3.06;100.00;100569.03;4484478;31;20080;-74
2022/12/18 08:26:10;;;;;;;42.58;13.38;;;;;;;-3.03;100.00;100566.47;4484400;31;20084;-73
2022/12/18 08:28:37;;;;;;;37.00;13.93;;;;;;;-2.97;100.00;100574.97;4484389;31;20105;-73
2022/12/18 08:31:05;;;;;;;40.60;15.15;;;;;;;-2.88;100.00;100569.81;4484049;32;20157;-72
2022/12/18 08:33:32;;;;;;;37.20;13.43;;;;;;;-2.80;100.00;100580.03;4484082;31;20127;-73
2022/12/18 08:36:00;;;;;;;38.80;14.05;;;;;;;-2.76;100.00;100571.44;4483957;31;20447;-73
2022/12/18 08:38:27;;;;;;;36.38;14.38;;;;;;;-2.82;100.00;100585.16;4484246;31;20100;-73
2022/12/18 08:41:02;;;;;;;49.80;17.12;;;;;;;-2.75;100.00;100580.88;4483736;32;20101;-73
2022/12/18 08:46:16;;;;;;;41.65;15.80;;;;;;;-2.88;100.00;100580.06;4484101;31;20147;-73
2022/12/18 08:48:43;;;;;;;49.42;16.70;;;;;;;-2.67;100.00;100574.81;4482919;32;20143;-73
2022/12/18 08:51:12;;;;;;;44.25;15.27;;;;;;;-2.74;100.00;100580.84;4484045;31;20605;-73
2022/12/18 08:53:39;;;;;;;43.22;16.48;;;;;;;-2.57;100.00;100577.34;4484268;31;20101;-73
2022/12/18 08:56:07;;;;;;;50.83;15.40;;;;;;;-2.51;100.00;100585.00;4483562;32;20156;-74
2022/12/18 08:58:34;;;;;;;36.53;14.27;;;;;;;-2.31;100.00;100582.28;4484122;31;20168;-73
2022/12/18 09:01:06;;;;;;;36.40;13.65;;;;;;;-2.29;100.00;100595.94;4483843;32;20115;-74
2022/12/18 09:03:34;;;;;;;36.63;13.32;;;;;;;-2.29;100.00;100595.12;4483812;31;20110;-73
2022/12/18 09:06:02;;;;;;;43.13;13.60;;;;;;;-2.27;100.00;100601.06;4484054;31;20119;-74
2022/12/18 09:08:29;;;;;;;47.67;13.68;;;;;;;-2.11;100.00;100607.81;4481011;31;20124;-73
2022/12/18 09:11:02;;;;;;;44.50;15.33;;;;;;;-2.16;100.00;100609.56;4467408;32;20085;-74
2022/12/18 09:13:30;;;;;;;35.45;11.93;;;;;;;-2.12;100.00;100608.66;4466533;32;20092;-73
2022/12/18 09:15:57;;;;;;;42.15;13.73;;;;;;;-2.06;100.00;100618.91;4468605;32;20081;-73
2022/12/18 09:18:24;;;;;;;36.80;13.30;;;;;;;-2.09;100.00;100610.37;4470218;32;20152;-73
2022/12/18 09:20:52;;;;;;;46.75;15.80;;;;;;;-2.06;100.00;100607.78;4475088;32;20169;-74
2022/12/18 09:23:20;;;;;;;40.35;15.18;;;;;;;-1.99;100.00;100605.12;4485756;31;20096;-74
2022/12/18 09:25:48;;;;;;;39.47;13.90;;;;;;;-1.90;100.00;100605.94;4486354;31;20806;-73
2022/12/18 09:28:17;;;;;;;39.38;15.20;;;;;;;-1.75;100.00;100605.81;4485415;31;20169;-74
2022/12/18 09:30:48;;;;;;;51.53;16.20;;;;;;;-1.66;100.00;100608.28;4485854;31;20148;-74
2022/12/18 09:33:17;;;;;;;43.17;14.85;;;;;;;-1.49;100.00;100612.41;4485001;31;20118;-73
2022/12/18 09:35:46;;;;;;;52.45;16.52;;;;;;;-1.56;100.00;100605.63;4485824;31;20081;-73
2022/12/18 09:38:16;;;;;;;39.20;14.35;;;;;;;-1.52;100.00;100602.16;4485813;31;20222;-73
2022/12/18 09:40:50;;;;;;;40.55;13.73;;;;;;;-1.27;100.00;100606.19;4485736;31;20080;-73
2022/12/18 09:43:19;;;;;;;43.22;15.32;;;;;;;-1.21;100.00;100617.25;4485653;31;20163;-73
2022/12/18 09:45:58;;;;;;;37.10;13.62;;;;;;;-1.08;100.00;100611.13;4485999;31;20490;-73
2022/12/18 09:48:31;;;;;;;42.20;14.77;;;;;;;-0.99;100.00;100605.84;4485775;32;20088;-73
2022/12/18 09:51:02;;;;;;;42.95;15.00;;;;;;;-0.93;100.00;100605.78;4484518;32;20122;-73
2022/12/18 09:53:33;;;;;;;45.40;14.60;;;;;;;-0.92;100.00;100612.63;4479678;32;20517;-73
2022/12/18 09:56:01;;;;;;;37.38;14.52;;;;;;;-0.83;100.00;100615.94;4485758;31;20104;-73
2022/12/18 09:58:33;;;;;;;36.45;14.38;;;;;;;-0.80;100.00;100606.50;4485651;31;20161;-73
2022/12/18 10:01:00;;;;;;;39.63;14.57;;;;;;;-0.83;100.00;100614.25;4484503;32;20203;-73
2022/12/18 10:03:27;;;;;;;36.92;13.50;;;;;;;-0.77;100.00;100611.59;4485489;32;20528;-73
2022/12/18 10:06:13;;;;;;;51.63;16.12;;;;;;;-0.78;100.00;100619.34;4485566;32;20171;-73
2022/12/18 10:08:48;;;;;;;46.25;16.12;;;;;;;-0.77;100.00;100619.31;4481486;32;20140;-73
2022/12/18 10:11:27;;;;;;;42.60;13.75;;;;;;;-0.65;100.00;100617.44;4469698;32;20407;-73
2022/12/18 10:14:11;;;;;;;42.67;15.88;;;;;;;-0.56;100.00;100614.72;4468485;32;20084;-73
2022/12/18 10:16:47;;;;;;;40.55;13.88;;;;;;;-0.40;100.00;100615.38;4469879;32;20080;-73
2022/12/18 10:19:33;;;;;;;48.87;16.27;;;;;;;-0.50;100.00;100614.69;4469884;32;20498;-73
2022/12/18 10:22:22;;;;;;;43.60;14.48;;;;;;;-0.30;100.00;100606.66;4482049;32;20092;-73
2022/12/18 10:24:51;;;;;;;44.00;15.88;;;;;;;-0.27;100.00;100609.19;4484246;32;20096;-73
2022/12/18 10:27:22;;;;;;;42.40;15.55;;;;;;;-0.27;100.00;100614.34;4484729;31;20088;-72
2022/12/18 10:29:49;;;;;;;38.28;15.75;;;;;;;-0.11;100.00;100602.06;4485467;31;20080;-72
2022/12/18 10:32:23;;;;;;;42.03;15.95;;;;;;;-0.12;100.00;100602.09;4485226;31;20100;-73
2022/12/18 10:34:53;;;;;;;39.33;13.93;;;;;;;-0.17;100.00;100602.16;4485572;31;20085;-73
2022/12/18 10:37:29;;;;;;;42.28;14.30;;;;;;;-0.17;97.81;100607.31;4485316;31;20488;-73
2022/12/18 10:40:09;;;;;;;45.22;15.20;;;;;;;-0.08;100.00;100603.75;4484366;32;20739;-73
2022/12/18 10:42:37;;;;;;;39.88;14.15;;;;;;;-0.11;100.00;100604.62;4485271;31;20092;-72
2022/12/18 10:45:15;;;;;;;27.92;11.45;;;;;;;-0.08;100.00;100611.47;4485266;31;20100;-73
2022/12/18 10:47:48;;;;;;;31.12;11.80;;;;;;;-0.06;91.51;100604.56;4485275;31;20077;-73
2022/12/18 10:50:28;;;;;;;36.13;12.02;;;;;;;-0.01;89.79;100610.50;4485423;31;20480;-73
2022/12/18 10:53:20;;;;;;;36.22;12.82;;;;;;;0.05;91.92;100607.84;4485601;31;20100;-73
2022/12/18 10:55:47;;;;;;;34.70;13.13;;;;;;;0.10;92.42;100606.00;4484179;32;20088;-72
2022/12/18 10:58:23;;;;;;;46.65;14.48;;;;;;;0.15;94.29;100609.38;4484277;32;20118;-73
2022/12/18 11:01:15;;;;;;;41.20;16.00;;;;;;;0.14;93.89;100604.25;4485311;31;20544;-73
2022/12/18 11:03:59;;;;;;;33.03;11.93;;;;;;;0.17;97.36;100607.63;4485194;31;20833;-72
2022/12/18 11:06:29;;;;;;;40.35;12.93;;;;;;;0.13;93.73;100602.56;4485195;31;20362;-72
2022/12/18 11:09:21;;;;;;;34.78;12.05;;;;;;;0.16;90.98;100593.03;4479106;31;20461;-72
2022/12/18 11:11:53;;;;;;;31.37;12.13;;;;;;;0.22;91.47;100586.91;4469330;32;20526;-72
2022/12/18 11:14:24;;;;;;;33.55;12.73;;;;;;;0.42;89.21;100586.56;4468050;32;20092;-72
2022/12/18 11:16:52;;;;;;;34.17;12.48;;;;;;;0.43;90.21;100590.84;4469485;32;20529;-73
2022/12/18 11:19:40;;;;;;;36.88;12.82;;;;;;;0.45;87.24;100588.25;4469579;32;20463;-73
2022/12/18 11:22:27;;;;;;;32.90;12.25;;;;;;;0.52;85.41;100587.25;4481116;32;20091;-73
2022/12/18 11:24:57;;;;;;;30.55;11.23;;;;;;;0.69;88.58;100589.50;4483912;32;20157;-73